EGPF

Glasgow International Airport

Glasgow, United Kingdom
TAF EGPF 261054Z 2612/2712 26012KT 9999 SCT025 TEMPO 2612/2618 25018G28KT 7000 SHRA BECMG 2703/2706 VRB05KT
Issued Valid From Valid To
Apr-26 @ 10:54 UTC
(3 hours ago)
Apr-26 @ 12:00 UTC
(2 hours ago)
Apr-27 @ 12:00 UTC
(in 22 hours)
Apr-26 @ 12:00 to Apr-27 @ 03:00
TAF EGPF 261054Z 2612/2712 26012KT 9999 SCT025
Wind Visibility Clouds
260° at 12 knots 10,000+ meters
  • Scattered at 2,500' AGL
Temporary Apr-26 @ 12:00 to Apr-26 @ 18:00
TEMPO 2612/2618 25018G28KT 7000 SHRA
Wind Visibility Conditions
250° at 18 knots
 Gusting to 28 knots
7,001 meters
  • Rain
Becoming Apr-27 @ 03:00 to Apr-27 @ 12:00
BECMG 2703/2706 VRB05KT
Wind Visibility Clouds
Variable at 5 knots 10,000+ meters
  • Scattered at 2,500' AGL
TAF EGPF 261054Z 2612/2712 26012KT 9999 SCT025 TEMPO 2612/2618 25018G28KT 7000 SHRA BECMG 2703/2706 VRB05KT
Issued Apr-26 @ 10:54 UTC
(3 hours ago)
Valid From Apr-26 @ 12:00 UTC
(2 hours ago)
Valid To Apr-27 @ 12:00 UTC
(in 22 hours)
Apr-26 @ 12:00 - Apr-27 @ 03:00
Wind Visibility
260° at 12 knots 10,000+ meters
Clouds
  • Scattered at 2,500' AGL
Temporary Apr-26 @ 12:00 - Apr-26 @ 18:00
Wind Visibility
250° at 18 knots
 Gusting to 28 knots
7,001 meters
Conditions
  • Rain
Becoming Apr-27 @ 03:00 - Apr-27 @ 12:00
Wind Visibility
Variable at 5 knots 10,000+ meters
Clouds
  • Scattered at 2,500' AGL